sensor_id;sensor_type;location;lat;lon;timestamp;P1;durP1;ratioP1;P2;durP2;ratioP2
5867;SDS011;2960;49.142;7.768;2023-01-20T00:01:34;7.47;;;2.27;;
5867;SDS011;2960;49.142;7.768;2023-01-20T00:04:04;7.73;;;2.43;;
5867;SDS011;2960;49.142;7.768;2023-01-20T00:06:32;7.20;;;2.00;;
5867;SDS011;2960;49.142;7.768;2023-01-20T00:09:00;7.23;;;2.40;;
5867;SDS011;2960;49.142;7.768;2023-01-20T00:11:28;7.07;;;2.10;;
5867;SDS011;2960;49.142;7.768;2023-01-20T00:13:57;8.47;;;2.57;;
5867;SDS011;2960;49.142;7.768;2023-01-20T00:16:26;7.30;;;2.27;;
5867;SDS011;2960;49.142;7.768;2023-01-20T00:18:55;7.87;;;2.67;;
5867;SDS011;2960;49.142;7.768;2023-01-20T00:21:23;7.83;;;2.37;;
5867;SDS011;2960;49.142;7.768;2023-01-20T00:23:50;7.50;;;2.20;;
5867;SDS011;2960;49.142;7.768;2023-01-20T00:26:18;6.90;;;1.93;;
5867;SDS011;2960;49.142;7.768;2023-01-20T00:28:47;7.03;;;2.10;;
5867;SDS011;2960;49.142;7.768;2023-01-20T00:31:19;7.67;;;2.60;;
5867;SDS011;2960;49.142;7.768;2023-01-20T00:33:48;7.67;;;2.53;;
5867;SDS011;2960;49.142;7.768;2023-01-20T00:36:17;9.27;;;2.40;;
5867;SDS011;2960;49.142;7.768;2023-01-20T00:38:47;8.90;;;2.17;;
5867;SDS011;2960;49.142;7.768;2023-01-20T00:41:17;7.17;;;2.13;;
5867;SDS011;2960;49.142;7.768;2023-01-20T00:43:45;6.90;;;2.10;;
5867;SDS011;2960;49.142;7.768;2023-01-20T00:46:12;9.53;;;2.27;;
5867;SDS011;2960;49.142;7.768;2023-01-20T00:48:40;7.43;;;2.40;;
5867;SDS011;2960;49.142;7.768;2023-01-20T00:51:08;7.47;;;2.00;;
5867;SDS011;2960;49.142;7.768;2023-01-20T00:53:36;8.30;;;2.27;;
5867;SDS011;2960;49.142;7.768;2023-01-20T00:56:04;7.60;;;2.23;;
5867;SDS011;2960;49.142;7.768;2023-01-20T00:58:32;7.57;;;2.17;;
5867;SDS011;2960;49.142;7.768;2023-01-20T01:01:00;6.90;;;2.00;;
5867;SDS011;2960;49.142;7.768;2023-01-20T01:03:27;7.50;;;2.33;;
5867;SDS011;2960;49.142;7.768;2023-01-20T01:06:03;6.63;;;1.80;;
5867;SDS011;2960;49.142;7.768;2023-01-20T01:08:33;7.20;;;2.00;;
5867;SDS011;2960;49.142;7.768;2023-01-20T01:11:01;7.17;;;2.23;;
5867;SDS011;2960;49.142;7.768;2023-01-20T01:13:29;7.20;;;2.30;;
5867;SDS011;2960;49.142;7.768;2023-01-20T01:15:56;7.20;;;2.10;;
5867;SDS011;2960;49.142;7.768;2023-01-20T01:18:24;7.30;;;2.40;;
5867;SDS011;2960;49.142;7.768;2023-01-20T01:20:51;7.47;;;2.37;;
5867;SDS011;2960;49.142;7.768;2023-01-20T01:23:18;7.00;;;2.20;;
5867;SDS011;2960;49.142;7.768;2023-01-20T01:25:45;7.67;;;2.53;;
5867;SDS011;2960;49.142;7.768;2023-01-20T01:28:12;7.80;;;2.50;;
5867;SDS011;2960;49.142;7.768;2023-01-20T01:30:43;6.97;;;2.03;;
5867;SDS011;2960;49.142;7.768;2023-01-20T01:33:10;7.10;;;1.93;;
5867;SDS011;2960;49.142;7.768;2023-01-20T01:35:37;7.40;;;2.33;;
5867;SDS011;2960;49.142;7.768;2023-01-20T01:38:04;6.57;;;1.70;;
5867;SDS011;2960;49.142;7.768;2023-01-20T01:40:31;8.13;;;2.40;;
5867;SDS011;2960;49.142;7.768;2023-01-20T01:42:59;7.50;;;2.40;;
5867;SDS011;2960;49.142;7.768;2023-01-20T01:45:27;7.83;;;2.13;;
5867;SDS011;2960;49.142;7.768;2023-01-20T01:47:59;7.20;;;2.20;;
5867;SDS011;2960;49.142;7.768;2023-01-20T01:50:33;7.43;;;2.30;;
5867;SDS011;2960;49.142;7.768;2023-01-20T01:53:05;7.50;;;2.20;;
5867;SDS011;2960;49.142;7.768;2023-01-20T01:55:34;7.20;;;2.17;;
5867;SDS011;2960;49.142;7.768;2023-01-20T01:58:04;7.40;;;2.10;;
5867;SDS011;2960;49.142;7.768;2023-01-20T02:00:33;7.73;;;2.50;;
5867;SDS011;2960;49.142;7.768;2023-01-20T02:03:01;9.23;;;2.63;;
5867;SDS011;2960;49.142;7.768;2023-01-20T02:05:29;8.60;;;2.50;;
5867;SDS011;2960;49.142;7.768;2023-01-20T02:07:58;7.03;;;2.20;;
5867;SDS011;2960;49.142;7.768;2023-01-20T02:10:25;8.80;;;2.20;;
5867;SDS011;2960;49.142;7.768;2023-01-20T02:12:52;7.47;;;2.07;;
5867;SDS011;2960;49.142;7.768;2023-01-20T02:15:22;7.00;;;1.97;;
5867;SDS011;2960;49.142;7.768;2023-01-20T02:18:00;7.40;;;2.50;;
5867;SDS011;2960;49.142;7.768;2023-01-20T02:24:03;7.60;;;2.50;;
5867;SDS011;2960;49.142;7.768;2023-01-20T02:26:58;7.83;;;2.43;;
5867;SDS011;2960;49.142;7.768;2023-01-20T02:29:39;7.27;;;2.30;;
5867;SDS011;2960;49.142;7.768;2023-01-20T02:32:41;8.07;;;2.80;;
5867;SDS011;2960;49.142;7.768;2023-01-20T02:35:17;7.37;;;2.33;;
5867;SDS011;2960;49.142;7.768;2023-01-20T02:37:52;7.20;;;2.20;;
5867;SDS011;2960;49.142;7.768;2023-01-20T02:40:30;7.60;;;2.27;;
5867;SDS011;2960;49.142;7.768;2023-01-20T02:43:07;8.17;;;2.50;;
5867;SDS011;2960;49.142;7.768;2023-01-20T02:45:43;7.00;;;2.17;;
5867;SDS011;2960;49.142;7.768;2023-01-20T02:48:19;7.43;;;2.30;;
5867;SDS011;2960;49.142;7.768;2023-01-20T02:50:52;7.93;;;2.17;;
5867;SDS011;2960;49.142;7.768;2023-01-20T02:53:25;7.50;;;2.30;;
5867;SDS011;2960;49.142;7.768;2023-01-20T02:56:02;7.10;;;2.30;;
5867;SDS011;2960;49.142;7.768;2023-01-20T02:58:32;7.53;;;1.80;;
5867;SDS011;2960;49.142;7.768;2023-01-20T03:01:07;7.90;;;2.50;;
5867;SDS011;2960;49.142;7.768;2023-01-20T03:03:40;8.20;;;2.20;;
5867;SDS011;2960;49.142;7.768;2023-01-20T03:06:12;7.97;;;2.10;;
5867;SDS011;2960;49.142;7.768;2023-01-20T03:08:43;7.50;;;2.00;;
5867;SDS011;2960;49.142;7.768;2023-01-20T03:11:13;7.37;;;2.07;;
5867;SDS011;2960;49.142;7.768;2023-01-20T03:13:41;7.13;;;2.20;;
5867;SDS011;2960;49.142;7.768;2023-01-20T03:16:15;7.13;;;2.10;;
5867;SDS011;2960;49.142;7.768;2023-01-20T03:18:45;7.43;;;2.40;;
5867;SDS011;2960;49.142;7.768;2023-01-20T03:21:13;7.50;;;2.40;;
5867;SDS011;2960;49.142;7.768;2023-01-20T03:23:41;7.17;;;2.10;;
5867;SDS011;2960;49.142;7.768;2023-01-20T03:26:14;7.73;;;2.00;;
5867;SDS011;2960;49.142;7.768;2023-01-20T03:28:43;7.33;;;2.23;;
5867;SDS011;2960;49.142;7.768;2023-01-20T03:31:14;7.67;;;2.00;;
5867;SDS011;2960;49.142;7.768;2023-01-20T03:33:44;7.53;;;2.07;;
5867;SDS011;2960;49.142;7.768;2023-01-20T03:36:15;8.10;;;2.30;;
5867;SDS011;2960;49.142;7.768;2023-01-20T03:38:43;8.10;;;2.40;;
5867;SDS011;2960;49.142;7.768;2023-01-20T03:41:13;7.60;;;2.23;;
5867;SDS011;2960;49.142;7.768;2023-01-20T03:43:51;8.10;;;2.20;;
5867;SDS011;2960;49.142;7.768;2023-01-20T03:46:37;7.30;;;2.20;;
5867;SDS011;2960;49.142;7.768;2023-01-20T03:49:12;7.50;;;2.00;;
5867;SDS011;2960;49.142;7.768;2023-01-20T03:51:50;7.50;;;2.30;;
5867;SDS011;2960;49.142;7.768;2023-01-20T03:54:29;7.37;;;2.20;;
5867;SDS011;2960;49.142;7.768;2023-01-20T03:57:03;7.40;;;2.27;;
5867;SDS011;2960;49.142;7.768;2023-01-20T03:59:36;7.13;;;2.07;;
5867;SDS011;2960;49.142;7.768;2023-01-20T04:02:06;7.00;;;2.00;;
5867;SDS011;2960;49.142;7.768;2023-01-20T04:04:36;8.17;;;2.30;;
5867;SDS011;2960;49.142;7.768;2023-01-20T04:07:06;7.30;;;2.00;;
5867;SDS011;2960;49.142;7.768;2023-01-20T04:09:39;6.70;;;1.80;;
5867;SDS011;2960;49.142;7.768;2023-01-20T04:12:11;7.77;;;2.13;;
5867;SDS011;2960;49.142;7.768;2023-01-20T04:14:39;8.33;;;2.30;;
5867;SDS011;2960;49.142;7.768;2023-01-20T04:17:06;7.30;;;2.20;;
5867;SDS011;2960;49.142;7.768;2023-01-20T04:19:33;7.53;;;2.00;;
5867;SDS011;2960;49.142;7.768;2023-01-20T04:22:03;7.63;;;2.10;;
5867;SDS011;2960;49.142;7.768;2023-01-20T04:24:33;6.93;;;1.70;;
5867;SDS011;2960;49.142;7.768;2023-01-20T04:27:06;8.77;;;1.90;;
5867;SDS011;2960;49.142;7.768;2023-01-20T04:29:34;7.40;;;1.83;;
5867;SDS011;2960;49.142;7.768;2023-01-20T04:32:01;6.60;;;1.80;;
5867;SDS011;2960;49.142;7.768;2023-01-20T04:34:29;7.97;;;2.00;;
5867;SDS011;2960;49.142;7.768;2023-01-20T04:36:57;6.80;;;1.97;;
5867;SDS011;2960;49.142;7.768;2023-01-20T04:39:24;6.77;;;1.90;;
5867;SDS011;2960;49.142;7.768;2023-01-20T04:41:54;7.17;;;1.90;;
5867;SDS011;2960;49.142;7.768;2023-01-20T04:44:21;8.43;;;2.30;;
5867;SDS011;2960;49.142;7.768;2023-01-20T04:46:48;7.13;;;1.83;;
5867;SDS011;2960;49.142;7.768;2023-01-20T04:49:16;8.60;;;2.30;;
5867;SDS011;2960;49.142;7.768;2023-01-20T04:51:43;7.97;;;2.20;;
5867;SDS011;2960;49.142;7.768;2023-01-20T04:54:11;6.70;;;1.90;;
5867;SDS011;2960;49.142;7.768;2023-01-20T04:56:38;7.00;;;1.70;;
5867;SDS011;2960;49.142;7.768;2023-01-20T04:59:05;7.80;;;1.83;;
5867;SDS011;2960;49.142;7.768;2023-01-20T05:01:32;8.60;;;2.23;;
5867;SDS011;2960;49.142;7.768;2023-01-20T05:03:59;8.70;;;2.10;;
5867;SDS011;2960;49.142;7.768;2023-01-20T05:06:26;7.37;;;2.00;;
5867;SDS011;2960;49.142;7.768;2023-01-20T05:08:54;9.27;;;2.00;;
5867;SDS011;2960;49.142;7.768;2023-01-20T05:11:22;7.40;;;2.00;;
5867;SDS011;2960;49.142;7.768;2023-01-20T05:13:49;7.63;;;2.30;;
5867;SDS011;2960;49.142;7.768;2023-01-20T05:16:16;7.30;;;2.20;;
5867;SDS011;2960;49.142;7.768;2023-01-20T05:18:47;7.83;;;1.80;;
5867;SDS011;2960;49.142;7.768;2023-01-20T05:21:15;7.43;;;1.73;;
5867;SDS011;2960;49.142;7.768;2023-01-20T05:23:42;6.80;;;1.70;;
5867;SDS011;2960;49.142;7.768;2023-01-20T05:26:09;7.33;;;2.03;;
5867;SDS011;2960;49.142;7.768;2023-01-20T05:28:38;7.10;;;1.77;;
5867;SDS011;2960;49.142;7.768;2023-01-20T05:31:05;7.60;;;2.03;;
5867;SDS011;2960;49.142;7.768;2023-01-20T05:33:32;7.23;;;1.97;;
5867;SDS011;2960;49.142;7.768;2023-01-20T05:36:05;7.27;;;1.90;;
5867;SDS011;2960;49.142;7.768;2023-01-20T05:38:33;7.57;;;2.00;;
5867;SDS011;2960;49.142;7.768;2023-01-20T05:41:00;7.20;;;1.70;;
5867;SDS011;2960;49.142;7.768;2023-01-20T05:43:29;7.40;;;1.70;;
5867;SDS011;2960;49.142;7.768;2023-01-20T05:45:58;7.27;;;1.80;;
5867;SDS011;2960;49.142;7.768;2023-01-20T05:48:25;7.37;;;1.80;;
5867;SDS011;2960;49.142;7.768;2023-01-20T05:50:53;8.20;;;2.03;;
5867;SDS011;2960;49.142;7.768;2023-01-20T05:53:20;7.53;;;2.17;;
5867;SDS011;2960;49.142;7.768;2023-01-20T05:55:47;7.23;;;2.00;;
5867;SDS011;2960;49.142;7.768;2023-01-20T05:58:14;7.30;;;1.93;;
5867;SDS011;2960;49.142;7.768;2023-01-20T06:00:41;7.30;;;2.10;;
5867;SDS011;2960;49.142;7.768;2023-01-20T06:03:10;7.93;;;2.20;;
5867;SDS011;2960;49.142;7.768;2023-01-20T06:05:37;8.57;;;2.00;;
5867;SDS011;2960;49.142;7.768;2023-01-20T06:08:04;7.70;;;2.20;;
5867;SDS011;2960;49.142;7.768;2023-01-20T06:10:31;7.40;;;1.90;;
5867;SDS011;2960;49.142;7.768;2023-01-20T06:12:59;8.00;;;2.33;;
5867;SDS011;2960;49.142;7.768;2023-01-20T06:15:26;7.87;;;2.23;;
5867;SDS011;2960;49.142;7.768;2023-01-20T06:17:53;7.80;;;2.30;;
5867;SDS011;2960;49.142;7.768;2023-01-20T06:20:22;8.00;;;2.30;;
5867;SDS011;2960;49.142;7.768;2023-01-20T06:22:53;8.00;;;2.10;;
5867;SDS011;2960;49.142;7.768;2023-01-20T06:25:20;8.50;;;2.77;;
5867;SDS011;2960;49.142;7.768;2023-01-20T06:27:47;9.20;;;2.50;;
5867;SDS011;2960;49.142;7.768;2023-01-20T06:30:15;7.60;;;2.13;;
5867;SDS011;2960;49.142;7.768;2023-01-20T06:32:45;10.80;;;2.50;;
5867;SDS011;2960;49.142;7.768;2023-01-20T06:35:13;8.60;;;2.27;;
5867;SDS011;2960;49.142;7.768;2023-01-20T06:37:41;7.50;;;2.33;;
5867;SDS011;2960;49.142;7.768;2023-01-20T06:40:09;8.37;;;2.70;;
5867;SDS011;2960;49.142;7.768;2023-01-20T06:42:37;8.27;;;2.50;;
5867;SDS011;2960;49.142;7.768;2023-01-20T06:45:05;8.50;;;2.40;;
5867;SDS011;2960;49.142;7.768;2023-01-20T06:47:33;7.00;;;2.10;;
5867;SDS011;2960;49.142;7.768;2023-01-20T06:50:00;7.40;;;2.07;;
5867;SDS011;2960;49.142;7.768;2023-01-20T06:52:28;7.97;;;2.13;;
5867;SDS011;2960;49.142;7.768;2023-01-20T06:54:56;10.40;;;2.30;;
5867;SDS011;2960;49.142;7.768;2023-01-20T06:57:23;7.83;;;2.20;;
5867;SDS011;2960;49.142;7.768;2023-01-20T06:59:50;7.70;;;2.60;;
5867;SDS011;2960;49.142;7.768;2023-01-20T07:02:18;8.70;;;2.67;;
5867;SDS011;2960;49.142;7.768;2023-01-20T07:04:45;8.30;;;2.37;;
5867;SDS011;2960;49.142;7.768;2023-01-20T07:07:13;8.80;;;2.57;;
5867;SDS011;2960;49.142;7.768;2023-01-20T07:09:40;8.70;;;2.50;;
5867;SDS011;2960;49.142;7.768;2023-01-20T07:12:08;9.47;;;2.80;;
5867;SDS011;2960;49.142;7.768;2023-01-20T07:14:35;9.23;;;3.00;;
5867;SDS011;2960;49.142;7.768;2023-01-20T07:17:03;8.93;;;2.80;;
5867;SDS011;2960;49.142;7.768;2023-01-20T07:19:33;7.93;;;2.40;;
5867;SDS011;2960;49.142;7.768;2023-01-20T07:22:00;10.13;;;2.80;;
5867;SDS011;2960;49.142;7.768;2023-01-20T07:24:27;9.90;;;3.03;;
5867;SDS011;2960;49.142;7.768;2023-01-20T07:26:54;9.13;;;2.80;;
5867;SDS011;2960;49.142;7.768;2023-01-20T07:29:23;12.17;;;2.70;;
5867;SDS011;2960;49.142;7.768;2023-01-20T07:31:51;8.40;;;2.47;;
5867;SDS011;2960;49.142;7.768;2023-01-20T07:34:18;8.97;;;2.80;;
5867;SDS011;2960;49.142;7.768;2023-01-20T07:36:45;9.00;;;2.73;;
5867;SDS011;2960;49.142;7.768;2023-01-20T07:39:15;7.70;;;2.37;;
5867;SDS011;2960;49.142;7.768;2023-01-20T07:41:44;8.63;;;2.30;;
5867;SDS011;2960;49.142;7.768;2023-01-20T07:44:13;9.40;;;2.47;;
5867;SDS011;2960;49.142;7.768;2023-01-20T07:46:42;8.37;;;2.50;;
5867;SDS011;2960;49.142;7.768;2023-01-20T07:49:09;9.27;;;2.70;;
5867;SDS011;2960;49.142;7.768;2023-01-20T07:51:36;8.27;;;2.40;;
5867;SDS011;2960;49.142;7.768;2023-01-20T07:54:04;7.53;;;2.40;;
5867;SDS011;2960;49.142;7.768;2023-01-20T07:56:33;8.13;;;2.23;;
5867;SDS011;2960;49.142;7.768;2023-01-20T07:59:00;9.40;;;2.50;;
5867;SDS011;2960;49.142;7.768;2023-01-20T08:01:28;9.27;;;2.60;;
5867;SDS011;2960;49.142;7.768;2023-01-20T08:03:58;7.93;;;2.33;;
5867;SDS011;2960;49.142;7.768;2023-01-20T08:06:26;8.03;;;2.40;;
5867;SDS011;2960;49.142;7.768;2023-01-20T08:08:54;10.07;;;2.67;;
5867;SDS011;2960;49.142;7.768;2023-01-20T08:11:21;7.20;;;2.50;;
5867;SDS011;2960;49.142;7.768;2023-01-20T08:13:48;8.63;;;2.43;;
5867;SDS011;2960;49.142;7.768;2023-01-20T08:16:16;7.67;;;2.50;;
5867;SDS011;2960;49.142;7.768;2023-01-20T08:18:44;7.43;;;2.30;;
5867;SDS011;2960;49.142;7.768;2023-01-20T08:21:17;8.10;;;2.40;;
5867;SDS011;2960;49.142;7.768;2023-01-20T08:23:46;8.60;;;3.00;;
5867;SDS011;2960;49.142;7.768;2023-01-20T08:26:13;8.27;;;2.50;;
5867;SDS011;2960;49.142;7.768;2023-01-20T08:28:41;8.83;;;2.80;;
5867;SDS011;2960;49.142;7.768;2023-01-20T08:31:09;8.17;;;2.40;;
5867;SDS011;2960;49.142;7.768;2023-01-20T08:33:39;9.37;;;3.50;;
5867;SDS011;2960;49.142;7.768;2023-01-20T08:36:08;8.40;;;3.00;;
5867;SDS011;2960;49.142;7.768;2023-01-20T08:38:39;8.60;;;2.90;;
5867;SDS011;2960;49.142;7.768;2023-01-20T08:41:06;8.60;;;3.07;;
5867;SDS011;2960;49.142;7.768;2023-01-20T08:47:15;9.30;;;3.43;;
5867;SDS011;2960;49.142;7.768;2023-01-20T08:49:42;9.10;;;3.10;;
5867;SDS011;2960;49.142;7.768;2023-01-20T08:52:09;9.87;;;3.27;;
5867;SDS011;2960;49.142;7.768;2023-01-20T08:54:38;8.20;;;3.00;;
5867;SDS011;2960;49.142;7.768;2023-01-20T08:57:05;8.70;;;3.23;;
5867;SDS011;2960;49.142;7.768;2023-01-20T08:59:32;8.03;;;2.57;;
5867;SDS011;2960;49.142;7.768;2023-01-20T09:01:59;8.10;;;3.20;;
5867;SDS011;2960;49.142;7.768;2023-01-20T09:04:26;9.03;;;3.00;;
5867;SDS011;2960;49.142;7.768;2023-01-20T09:06:54;9.10;;;3.20;;
5867;SDS011;2960;49.142;7.768;2023-01-20T09:09:21;8.30;;;3.27;;
5867;SDS011;2960;49.142;7.768;2023-01-20T09:11:50;9.93;;;3.70;;
5867;SDS011;2960;49.142;7.768;2023-01-20T09:14:17;9.70;;;3.60;;
5867;SDS011;2960;49.142;7.768;2023-01-20T09:16:45;8.90;;;3.60;;
5867;SDS011;2960;49.142;7.768;2023-01-20T09:19:13;9.27;;;3.67;;
5867;SDS011;2960;49.142;7.768;2023-01-20T09:21:41;8.37;;;3.40;;
5867;SDS011;2960;49.142;7.768;2023-01-20T09:24:08;9.93;;;4.10;;
5867;SDS011;2960;49.142;7.768;2023-01-20T09:26:35;10.03;;;4.10;;
5867;SDS011;2960;49.142;7.768;2023-01-20T09:29:07;11.00;;;4.43;;
5867;SDS011;2960;49.142;7.768;2023-01-20T09:31:37;10.20;;;4.30;;
5867;SDS011;2960;49.142;7.768;2023-01-20T09:34:08;11.30;;;4.20;;
5867;SDS011;2960;49.142;7.768;2023-01-20T09:36:35;10.53;;;4.27;;
5867;SDS011;2960;49.142;7.768;2023-01-20T09:39:02;11.50;;;4.13;;
5867;SDS011;2960;49.142;7.768;2023-01-20T09:41:59;11.63;;;4.40;;
5867;SDS011;2960;49.142;7.768;2023-01-20T09:45:02;10.50;;;4.20;;
5867;SDS011;2960;49.142;7.768;2023-01-20T09:47:46;13.20;;;4.90;;
5867;SDS011;2960;49.142;7.768;2023-01-20T09:50:20;10.37;;;4.27;;
5867;SDS011;2960;49.142;7.768;2023-01-20T09:53:27;11.80;;;4.70;;
5867;SDS011;2960;49.142;7.768;2023-01-20T09:56:09;11.87;;;4.70;;
5867;SDS011;2960;49.142;7.768;2023-01-20T09:58:43;11.33;;;4.70;;
5867;SDS011;2960;49.142;7.768;2023-01-20T10:01:16;10.23;;;4.40;;
5867;SDS011;2960;49.142;7.768;2023-01-20T10:03:55;10.00;;;4.20;;
5867;SDS011;2960;49.142;7.768;2023-01-20T10:06:32;10.73;;;4.33;;
5867;SDS011;2960;49.142;7.768;2023-01-20T10:09:08;10.93;;;4.20;;
5867;SDS011;2960;49.142;7.768;2023-01-20T10:11:45;10.80;;;4.30;;
5867;SDS011;2960;49.142;7.768;2023-01-20T10:14:15;12.80;;;4.70;;
5867;SDS011;2960;49.142;7.768;2023-01-20T10:16:50;11.30;;;4.50;;
5867;SDS011;2960;49.142;7.768;2023-01-20T10:19:27;10.80;;;4.17;;
5867;SDS011;2960;49.142;7.768;2023-01-20T10:22:03;11.23;;;4.60;;
5867;SDS011;2960;49.142;7.768;2023-01-20T10:24:35;11.67;;;4.50;;
5867;SDS011;2960;49.142;7.768;2023-01-20T10:27:08;10.90;;;4.30;;
5867;SDS011;2960;49.142;7.768;2023-01-20T10:29:36;12.43;;;5.17;;
5867;SDS011;2960;49.142;7.768;2023-01-20T10:32:09;12.87;;;5.37;;
5867;SDS011;2960;49.142;7.768;2023-01-20T10:34:45;12.70;;;5.50;;
5867;SDS011;2960;49.142;7.768;2023-01-20T10:37:15;11.27;;;4.90;;
5867;SDS011;2960;49.142;7.768;2023-01-20T10:39:44;12.40;;;5.23;;
5867;SDS011;2960;49.142;7.768;2023-01-20T10:42:18;12.90;;;5.10;;
5867;SDS011;2960;49.142;7.768;2023-01-20T10:44:46;13.37;;;5.60;;
5867;SDS011;2960;49.142;7.768;2023-01-20T10:47:20;12.07;;;4.80;;
5867;SDS011;2960;49.142;7.768;2023-01-20T10:50:01;12.93;;;5.10;;
5867;SDS011;2960;49.142;7.768;2023-01-20T10:59:06;13.00;;;5.50;;
5867;SDS011;2960;49.142;7.768;2023-01-20T11:01:39;13.07;;;5.80;;
5867;SDS011;2960;49.142;7.768;2023-01-20T11:04:14;12.33;;;5.60;;
5867;SDS011;2960;49.142;7.768;2023-01-20T11:06:44;14.20;;;5.80;;
5867;SDS011;2960;49.142;7.768;2023-01-20T11:09:19;12.20;;;5.30;;
5867;SDS011;2960;49.142;7.768;2023-01-20T11:11:52;11.90;;;4.90;;
5867;SDS011;2960;49.142;7.768;2023-01-20T11:14:21;13.43;;;4.80;;
5867;SDS011;2960;49.142;7.768;2023-01-20T11:16:59;11.67;;;4.87;;
5867;SDS011;2960;49.142;7.768;2023-01-20T11:19:44;11.10;;;4.57;;
5867;SDS011;2960;49.142;7.768;2023-01-20T11:22:15;11.70;;;4.97;;
5867;SDS011;2960;49.142;7.768;2023-01-20T11:24:52;11.37;;;4.70;;
5867;SDS011;2960;49.142;7.768;2023-01-20T11:27:21;12.17;;;4.20;;
5867;SDS011;2960;49.142;7.768;2023-01-20T11:29:54;11.00;;;4.27;;
5867;SDS011;2960;49.142;7.768;2023-01-20T11:32:28;11.67;;;4.53;;
5867;SDS011;2960;49.142;7.768;2023-01-20T11:35:00;10.90;;;4.50;;
5867;SDS011;2960;49.142;7.768;2023-01-20T11:37:45;12.57;;;4.90;;
5867;SDS011;2960;49.142;7.768;2023-01-20T11:40:17;11.17;;;4.43;;
5867;SDS011;2960;49.142;7.768;2023-01-20T11:42:47;11.97;;;4.33;;
5867;SDS011;2960;49.142;7.768;2023-01-20T11:45:23;10.50;;;4.37;;
5867;SDS011;2960;49.142;7.768;2023-01-20T11:47:58;10.67;;;4.40;;
5867;SDS011;2960;49.142;7.768;2023-01-20T11:50:35;10.13;;;4.20;;
5867;SDS011;2960;49.142;7.768;2023-01-20T11:53:12;10.90;;;4.77;;
5867;SDS011;2960;49.142;7.768;2023-01-20T11:55:48;10.10;;;4.30;;
5867;SDS011;2960;49.142;7.768;2023-01-20T11:58:19;10.97;;;4.33;;
5867;SDS011;2960;49.142;7.768;2023-01-20T12:00:49;9.83;;;4.10;;
5867;SDS011;2960;49.142;7.768;2023-01-20T12:06:44;10.33;;;4.00;;
5867;SDS011;2960;49.142;7.768;2023-01-20T12:09:18;12.40;;;4.30;;
5867;SDS011;2960;49.142;7.768;2023-01-20T12:11:52;10.07;;;4.10;;
5867;SDS011;2960;49.142;7.768;2023-01-20T12:14:26;10.00;;;4.20;;
5867;SDS011;2960;49.142;7.768;2023-01-20T12:17:12;9.30;;;3.90;;
5867;SDS011;2960;49.142;7.768;2023-01-20T12:20:01;11.07;;;4.50;;
5867;SDS011;2960;49.142;7.768;2023-01-20T12:22:42;9.97;;;4.23;;
5867;SDS011;2960;49.142;7.768;2023-01-20T12:25:17;11.30;;;4.03;;
5867;SDS011;2960;49.142;7.768;2023-01-20T12:27:48;10.10;;;4.20;;
5867;SDS011;2960;49.142;7.768;2023-01-20T12:30:27;9.70;;;4.17;;
5867;SDS011;2960;49.142;7.768;2023-01-20T12:33:19;9.63;;;3.97;;
5867;SDS011;2960;49.142;7.768;2023-01-20T12:36:03;10.57;;;4.27;;
5867;SDS011;2960;49.142;7.768;2023-01-20T12:41:53;11.40;;;4.23;;
5867;SDS011;2960;49.142;7.768;2023-01-20T12:44:55;10.00;;;4.07;;
5867;SDS011;2960;49.142;7.768;2023-01-20T12:47:28;10.13;;;4.20;;
5867;SDS011;2960;49.142;7.768;2023-01-20T12:50:14;10.80;;;4.33;;
5867;SDS011;2960;49.142;7.768;2023-01-20T12:52:56;9.03;;;3.73;;
5867;SDS011;2960;49.142;7.768;2023-01-20T12:55:51;9.43;;;3.63;;
5867;SDS011;2960;49.142;7.768;2023-01-20T12:58:37;8.97;;;3.40;;
5867;SDS011;2960;49.142;7.768;2023-01-20T13:01:21;10.23;;;3.53;;
5867;SDS011;2960;49.142;7.768;2023-01-20T13:04:24;11.60;;;4.03;;
5867;SDS011;2960;49.142;7.768;2023-01-20T13:07:36;10.50;;;4.00;;
5867;SDS011;2960;49.142;7.768;2023-01-20T13:13:14;9.90;;;3.80;;
5867;SDS011;2960;49.142;7.768;2023-01-20T13:15:52;11.07;;;3.93;;
5867;SDS011;2960;49.142;7.768;2023-01-20T13:18:27;10.80;;;3.73;;
5867;SDS011;2960;49.142;7.768;2023-01-20T13:21:01;11.40;;;4.10;;
5867;SDS011;2960;49.142;7.768;2023-01-20T13:23:30;11.03;;;4.13;;
5867;SDS011;2960;49.142;7.768;2023-01-20T13:26:01;11.60;;;4.07;;
5867;SDS011;2960;49.142;7.768;2023-01-20T13:28:32;9.77;;;3.90;;
5867;SDS011;2960;49.142;7.768;2023-01-20T13:31:00;9.33;;;4.00;;
5867;SDS011;2960;49.142;7.768;2023-01-20T13:34:02;12.77;;;4.60;;
5867;SDS011;2960;49.142;7.768;2023-01-20T13:37:20;11.30;;;4.00;;
5867;SDS011;2960;49.142;7.768;2023-01-20T13:39:54;9.40;;;3.57;;
5867;SDS011;2960;49.142;7.768;2023-01-20T13:42:45;10.33;;;4.00;;
5867;SDS011;2960;49.142;7.768;2023-01-20T13:45:23;11.27;;;4.20;;
5867;SDS011;2960;49.142;7.768;2023-01-20T13:48:20;9.80;;;3.60;;
5867;SDS011;2960;49.142;7.768;2023-01-20T13:50:48;9.40;;;3.80;;
5867;SDS011;2960;49.142;7.768;2023-01-20T13:53:25;10.53;;;3.80;;
5867;SDS011;2960;49.142;7.768;2023-01-20T13:55:57;10.00;;;3.60;;
5867;SDS011;2960;49.142;7.768;2023-01-20T13:58:26;10.40;;;4.40;;
5867;SDS011;2960;49.142;7.768;2023-01-20T14:00:56;9.10;;;3.50;;
5867;SDS011;2960;49.142;7.768;2023-01-20T14:03:28;10.60;;;4.23;;
5867;SDS011;2960;49.142;7.768;2023-01-20T14:05:58;9.80;;;4.10;;
5867;SDS011;2960;49.142;7.768;2023-01-20T14:08:27;9.50;;;3.93;;
5867;SDS011;2960;49.142;7.768;2023-01-20T14:11:02;12.83;;;3.63;;
5867;SDS011;2960;49.142;7.768;2023-01-20T14:13:35;9.20;;;3.60;;
5867;SDS011;2960;49.142;7.768;2023-01-20T14:16:03;9.57;;;3.50;;
5867;SDS011;2960;49.142;7.768;2023-01-20T14:18:32;10.87;;;4.10;;
5867;SDS011;2960;49.142;7.768;2023-01-20T14:21:02;9.10;;;3.57;;
5867;SDS011;2960;49.142;7.768;2023-01-20T14:23:41;9.90;;;4.00;;
5867;SDS011;2960;49.142;7.768;2023-01-20T14:26:11;10.37;;;3.93;;
5867;SDS011;2960;49.142;7.768;2023-01-20T14:28:44;10.47;;;4.43;;
5867;SDS011;2960;49.142;7.768;2023-01-20T14:31:16;9.37;;;3.93;;
5867;SDS011;2960;49.142;7.768;2023-01-20T14:33:52;11.20;;;4.00;;
5867;SDS011;2960;49.142;7.768;2023-01-20T14:36:24;9.57;;;4.00;;
5867;SDS011;2960;49.142;7.768;2023-01-20T14:38:55;10.20;;;4.40;;
5867;SDS011;2960;49.142;7.768;2023-01-20T14:41:27;9.53;;;3.80;;
5867;SDS011;2960;49.142;7.768;2023-01-20T14:44:00;9.87;;;4.60;;
5867;SDS011;2960;49.142;7.768;2023-01-20T14:46:28;9.90;;;4.00;;
5867;SDS011;2960;49.142;7.768;2023-01-20T14:48:59;10.87;;;3.90;;
5867;SDS011;2960;49.142;7.768;2023-01-20T14:51:28;8.70;;;3.47;;
5867;SDS011;2960;49.142;7.768;2023-01-20T14:57:19;11.37;;;4.50;;
5867;SDS011;2960;49.142;7.768;2023-01-20T14:59:59;8.67;;;3.63;;
5867;SDS011;2960;49.142;7.768;2023-01-20T15:02:45;10.20;;;4.43;;
5867;SDS011;2960;49.142;7.768;2023-01-20T15:05:21;9.80;;;4.10;;
5867;SDS011;2960;49.142;7.768;2023-01-20T15:08:04;9.40;;;4.03;;
5867;SDS011;2960;49.142;7.768;2023-01-20T15:10:42;9.97;;;4.00;;
5867;SDS011;2960;49.142;7.768;2023-01-20T15:13:20;10.47;;;4.20;;
5867;SDS011;2960;49.142;7.768;2023-01-20T15:15:49;10.47;;;4.10;;
5867;SDS011;2960;49.142;7.768;2023-01-20T15:18:17;8.73;;;3.50;;
5867;SDS011;2960;49.142;7.768;2023-01-20T15:20:49;9.40;;;3.90;;
5867;SDS011;2960;49.142;7.768;2023-01-20T15:23:19;9.17;;;3.90;;
5867;SDS011;2960;49.142;7.768;2023-01-20T15:25:49;11.13;;;3.70;;
5867;SDS011;2960;49.142;7.768;2023-01-20T15:31:07;9.90;;;3.87;;
5867;SDS011;2960;49.142;7.768;2023-01-20T15:33:38;9.40;;;3.30;;
5867;SDS011;2960;49.142;7.768;2023-01-20T15:36:16;10.40;;;3.70;;
5867;SDS011;2960;49.142;7.768;2023-01-20T15:38:49;11.20;;;3.50;;
5867;SDS011;2960;49.142;7.768;2023-01-20T15:41:16;10.00;;;3.30;;
5867;SDS011;2960;49.142;7.768;2023-01-20T15:43:44;10.80;;;3.70;;
5867;SDS011;2960;49.142;7.768;2023-01-20T15:46:13;10.43;;;4.03;;
5867;SDS011;2960;49.142;7.768;2023-01-20T15:48:42;10.23;;;4.20;;
5867;SDS011;2960;49.142;7.768;2023-01-20T15:51:12;10.50;;;4.20;;
5867;SDS011;2960;49.142;7.768;2023-01-20T15:53:43;10.40;;;4.10;;
5867;SDS011;2960;49.142;7.768;2023-01-20T15:56:13;10.40;;;3.93;;
5867;SDS011;2960;49.142;7.768;2023-01-20T15:58:44;10.40;;;3.73;;
5867;SDS011;2960;49.142;7.768;2023-01-20T16:01:12;9.33;;;3.43;;
5867;SDS011;2960;49.142;7.768;2023-01-20T16:03:42;9.87;;;3.70;;
5867;SDS011;2960;49.142;7.768;2023-01-20T16:06:10;9.53;;;3.60;;
5867;SDS011;2960;49.142;7.768;2023-01-20T16:08:41;11.33;;;3.70;;